Data for 02/07/2006

Time Sea-Level Adjusted Pressure Absolute Pressure Temperature Relative Humidity Dew Point   
(mb) (inHg) (mb) (inHg) (C) (F) (%) (C) (F)
00:05 1025 30.27 855 25.25 -2.9 26.8 58 -10 14
00:10 1025 30.27 855 25.25 -3 26.7 59 -9.8 14.3
00:15 1025 30.27 855 25.25 -3 26.5 58 -10.3 13.5
00:20 1025 30.27 855 25.25 -3.2 26.3 58 -10.4 13.3
00:25 1025 30.27 855 25.25 -3.2 26.3 57 -10.4 13.2
00:30 1025 30.27 855 25.25 -3.2 26.2 58 -10.4 13.2
00:35 1025 30.27 855 25.25 -3.1 26.5 59 -10.1 13.8
00:40 1025 30.27 855 25.25 -2.8 27 59 -9.7 14.6
00:45 1026 30.3 855 25.25 -2.8 26.9 59 -9.8 14.3
00:50 1026 30.3 855 25.25 -2.8 26.9 58 -9.9 14.1
00:55 1026 30.3 855 25.25 -2.9 26.9 57 -10.2 13.7
01:00 1026 30.3 855 25.25 -3 26.7 58 -10.2 13.7
01:05 1025 30.27 855 25.25 -3.4 25.9 60 -10 14
01:10 1025 30.27 855 25.25 -3.7 25.3 62 -10 14.1
01:15 1025 30.27 855 25.25 -3.6 25.6 61 -10.1 13.8
01:20 1025 30.27 855 25.25 -3.2 26.3 58 -10.2 13.6
01:25 1025 30.27 855 25.25 -3.1 26.4 59 -10.1 13.8
01:30 1025 30.27 854 25.22 -3.2 26.3 59 -10 14
01:35 1025 30.27 854 25.22 -3.4 25.8 61 -9.9 14.2
01:40 1025 30.27 854 25.22 -3.7 25.4 62 -10 14
01:45 1025 30.27 854 25.22 -3.7 25.4 60 -10.3 13.4
01:50 1025 30.27 854 25.22 -3.4 25.9 60 -10 14
01:55 1025 30.27 855 25.25 -3.7 25.4 61 -10 13.9
02:00 1025 30.27 855 25.25 -3.9 25 63 -10 14.1
02:05 1025 30.27 855 25.25 -4 24.8 63 -10.1 13.8
02:10 1026 30.3 855 25.25 -3.9 24.9 63 -10 14
02:15 1025 30.27 855 25.25 -3.8 25.1 62 -10.2 13.7
02:20 1025 30.27 855 25.25 -4 24.7 64 -10 14.1
02:25 1025 30.27 855 25.25 -4.7 23.5 65 -10.3 13.4
02:30 1025 30.27 855 25.25 -5.4 22.3 67 -10.5 13
02:35 1025 30.27 855 25.25 -5.4 22.2 67 -10.6 12.9
02:40 1025 30.27 854 25.22 -5.4 22.3 67 -10.6 13
02:45 1025 30.27 854 25.22 -5.2 22.6 65 -10.7 12.7
02:50 1025 30.27 854 25.22 -4.5 23.8 61 -10.9 12.3
02:55 1025 30.27 854 25.22 -4.1 24.6 60 -10.8 12.6
03:00 1025 30.27 854 25.22 -3.9 24.9 59 -10.8 12.6
03:05 1025 30.27 854 25.22 -4 24.8 60 -10.7 12.7
03:10 1025 30.27 854 25.22 -3.9 24.9 61 -10.3 13.4
03:15 1025 30.27 855 25.25 -4.3 24.2 63 -10.3 13.4
03:20 1025 30.27 855 25.25 -4.4 24.1 62 -10.5 13.1
03:25 1025 30.27 855 25.25 -3.9 25 60 -10.5 13.1
03:30 1025 30.27 855 25.25 -3.7 25.3 60 -10.4 13.3
03:35 1025 30.27 854 25.22 -3.9 24.9 61 -10.4 13.2
03:40 1025 30.27 854 25.22 -4.7 23.6 65 -10.3 13.4
03:45 1025 30.27 854 25.22 -5.4 22.4 67 -10.5 13.1
03:50 1025 30.27 854 25.22 -5.3 22.4 67 -10.5 13.1
03:55 1025 30.27 854 25.22 -5.3 22.4 66 -10.6 12.9
04:00 1025 30.27 854 25.22 -5 22.9 64 -10.8 12.5
04:05 1025 30.27 854 25.22 -4.5 24 62 -10.6 12.9
04:10 1025 30.27 854 25.22 -4.8 23.4 64 -10.6 12.9
04:15 1025 30.27 854 25.22 -4.5 23.8 63 -10.5 13
04:20 1025 30.27 854 25.22 -4.5 23.8 62 -10.8 12.6
04:25 1025 30.27 854 25.22 -4.2 24.4 59 -11.2 11.9
04:30 1025 30.27 854 25.22 -3.7 25.4 58 -10.9 12.5
04:35 1025 30.27 854 25.22 -3.8 25.1 59 -10.8 12.6
04:40 1025 30.27 855 25.25 -4.1 24.6 60 -10.8 12.5
04:45 1025 30.27 855 25.25 -4 24.8 59 -10.8 12.6
04:50 1025 30.27 855 25.25 -4.1 24.7 60 -10.7 12.7
04:55 1025 30.27 854 25.22 -3.9 24.9 59 -10.7 12.7
05:00 1025 30.27 855 25.25 -3.8 25.1 58 -10.9 12.3
05:05 1025 30.27 855 25.25 -3.7 25.4 59 -10.7 12.8
05:10 1025 30.27 855 25.25 -3.8 25.2 59 -10.6 12.9
05:15 1025 30.27 855 25.25 -3.7 25.3 59 -10.7 12.8
05:20 1025 30.27 855 25.25 -3.7 25.3 59 -10.6 12.9
05:25 1025 30.27 855 25.25 -3.7 25.4 59 -10.7 12.8
05:30 1025 30.27 855 25.25 -3.8 25.1 61 -10.3 13.5
05:35 1025 30.27 855 25.25 -5 22.9 65 -10.6 12.8
05:40 1025 30.27 855 25.25 -4.8 23.3 64 -10.7 12.7
05:45 1025 30.27 855 25.25 -4.7 23.5 63 -10.7 12.7
05:50 1026 30.3 855 25.25 -4.4 24 62 -10.8 12.6
05:55 1026 30.3 855 25.25 -4.3 24.2 62 -10.7 12.8
06:00 1025 30.27 855 25.25 -4.2 24.4 61 -10.6 13
06:05 1025 30.27 855 25.25 -4.1 24.5 61 -10.5 13
06:10 1025 30.27 855 25.25 -4.2 24.4 61 -10.6 12.9
06:15 1026 30.3 855 25.25 -4.6 23.7 63 -10.7 12.7
06:20 1026 30.3 855 25.25 -4.9 23.1 64 -10.8 12.6
06:25 1026 30.3 855 25.25 -5.1 22.8 64 -10.9 12.3
06:30 1026 30.3 855 25.25 -4.1 24.5 59 -11 12.1
06:35 1026 30.3 855 25.25 -4.1 24.6 59 -11 12.3
06:40 1026 30.3 855 25.25 -4.2 24.4 60 -10.9 12.5
06:45 1026 30.3 855 25.25 -4.5 23.8 61 -11 12.2
06:50 1026 30.3 855 25.25 -4.5 23.8 61 -11.1 12.1
06:55 1026 30.3 855 25.25 -4.4 24 60 -11.1 12
07:00 1026 30.3 855 25.25 -4.5 23.9 59 -11.3 11.6
07:05 1026 30.3 855 25.25 -4.5 23.9 60 -11.2 11.9
07:10 1026 30.3 855 25.25 -4.5 24 59 -11.2 11.8
07:15 1026 30.3 855 25.25 -4.4 24 59 -11.2 11.9
07:20 1026 30.3 855 25.25 -4.5 23.8 60 -11.1 12
07:25 1026 30.3 855 25.25 -4.4 24 59 -11.2 11.8
07:30 1026 30.3 855 25.25 -4.3 24.2 58 -11.3 11.7
07:35 1026 30.3 855 25.25 -4.4 24.1 60 -11.1 12
07:40 1026 30.3 855 25.25 -4.3 24.2 60 -11 12.3
07:45 1026 30.3 855 25.25 -4.3 24.3 62 -10.6 12.9
07:50 1026 30.3 855 25.25 -4.2 24.4 61 -10.8 12.6
07:55 1026 30.3 855 25.25 -4.5 23.9 61 -10.9 12.4
08:00 1026 30.3 855 25.25 -4.6 23.8 61 -11 12.2
08:05 1026 30.3 855 25.25 -4.4 24 60 -11 12.2
08:10 1026 30.3 855 25.25 -3.9 25 58 -11 12.3
08:15 1026 30.3 855 25.25 -3.4 25.9 57 -10.6 12.9
08:20 1026 30.3 855 25.25 -2.9 26.8 56 -10.5 13.1
08:25 1026 30.3 855 25.25 -2.6 27.2 55 -10.4 13.3
08:30 1026 30.3 855 25.25 -2.8 26.9 57 -10.3 13.5
08:35 1026 30.3 855 25.25 -3.1 26.4 57 -10.4 13.3
08:40 1026 30.3 855 25.25 -3 26.5 56 -10.6 13
08:45 1026 30.3 855 25.25 -4 24.9 60 -10.6 12.9
08:50 1026 30.3 855 25.25 -4.1 24.6 61 -10.6 12.9
08:55 1026 30.3 855 25.25 -3.6 25.6 58 -10.7 12.8
09:00 1026 30.3 855 25.25 -3 26.6 56 -10.6 12.9
09:05 1026 30.3 855 25.25 -2.7 27.2 55 -10.5 13.1
09:10 1026 30.3 855 25.25 -2.2 28 53 -10.6 12.9
09:15 1026 30.3 855 25.25 -1.7 29 52 -10.4 13.3
09:20 1026 30.3 855 25.25 -1.3 29.7 51 -10.2 13.6
09:25 1026 30.3 855 25.25 -0.8 30.5 50 -10 14
09:30 1026 30.3 855 25.25 -1.2 29.8 51 -10.1 13.9
09:35 1026 30.3 855 25.25 -1.2 29.8 51 -10.2 13.6
09:40 1026 30.3 856 25.28 -0.7 30.7 49 -10.1 13.9
09:45 1026 30.3 856 25.28 -0.5 31.1 47 -10.4 13.2
09:50 1026 30.3 856 25.28 -1.1 30 50 -10.3 13.5
09:55 1026 30.3 856 25.28 -1.3 29.7 50 -10.5 13.2
10:00 1026 30.3 856 25.28 -1 30.2 49 -10.4 13.3
10:05 1026 30.3 856 25.28 -0.6 31 48 -10.2 13.6
10:10 1026 30.3 856 25.28 -1 30.2 50 -10.1 13.9
10:15 1027 30.33 856 25.28 -1.7 29 53 -10 14.1
10:20 1027 30.33 856 25.28 -1.9 28.6 54 -10.1 13.8
10:25 1027 30.33 856 25.28 -1.3 29.7 52 -10 14
10:30 1027 30.33 856 25.28 -0.5 31.1 50 -9.8 14.4
10:35 1027 30.33 856 25.28 0.2 32.3 49 -9.3 15.2
10:40 1027 30.33 856 25.28 0.8 33.4 47 -9.3 15.3
10:45 1027 30.33 856 25.28 1.2 34.2 46 -9.2 15.5
10:50 1027 30.33 856 25.28 2 35.5 43 -9.4 15.1
10:55 1027 30.33 856 25.28 2.4 36.3 43 -9 15.9
11:00 1027 30.33 856 25.28 1.7 35 45 -9.1 15.7
11:05 1027 30.33 856 25.28 0.8 33.5 48 -9.1 15.6
11:10 1027 30.33 856 25.28 0.8 33.5 46 -9.6 14.7
11:15 1027 30.33 856 25.28 0.7 33.2 47 -9.5 14.8
11:20 1027 30.33 856 25.28 0.5 32.9 50 -8.7 16.4
11:25 1027 30.33 856 25.28 0.5 32.9 47 -9.6 14.8
11:30 1027 30.33 856 25.28 -0.4 31.2 51 -9.3 15.2
11:35 1027 30.33 856 25.28 0.2 32.3 47 -9.8 14.4
11:40 1027 30.33 856 25.28 1.2 34.2 46 -9.3 15.3
11:45 1027 30.33 856 25.28 1.6 35 45 -9 15.8
11:50 1027 30.33 856 25.28 1.6 34.8 45 -9.1 15.6
11:55 1027 30.33 856 25.28 1.9 35.5 43 -9.4 15.1
12:00 1026 30.3 856 25.28 2.8 37 41 -9.1 15.5
12:05 1026 30.3 856 25.28 3.6 38.6 39 -9.1 15.5
12:10 1026 30.3 856 25.28 3.7 38.7 38 -9.4 15.2
12:15 1026 30.3 856 25.28 3.8 38.8 37 -9.5 14.9
12:20 1026 30.3 856 25.28 3.6 38.5 38 -9.4 15
12:25 1026 30.3 856 25.28 4.1 39.4 35 -9.9 14.1
12:30 1026 30.3 855 25.25 3.7 38.6 37 -9.6 14.8
12:35 1026 30.3 855 25.25 3.7 38.7 38 -9.3 15.2
12:40 1026 30.3 855 25.25 3.9 39 41 -8.2 17.3
12:45 1026 30.3 855 25.25 3.4 38.1 42 -8.5 16.7
12:50 1026 30.3 855 25.25 3 37.4 43 -8.3 17
12:55 1026 30.3 855 25.25 2.6 36.6 46 -8 17.6
13:00 1026 30.3 855 25.25 2.4 36.4 46 -7.9 17.7
13:05 1026 30.3 855 25.25 2.6 36.7 46 -7.8 18
13:10 1026 30.3 855 25.25 2.7 36.9 47 -7.6 18.4
13:15 1026 30.3 855 25.25 2.9 37.2 44 -8.1 17.4
13:20 1026 30.3 855 25.25 2.9 37.2 43 -8.4 16.8
13:25 1026 30.3 855 25.25 2.4 36.3 44 -8.5 16.6
13:30 1025 30.27 855 25.25 2.3 36.2 44 -8.9 16.1
13:35 1025 30.27 855 25.25 2.6 36.6 45 -8.3 17.1
13:40 1026 30.3 855 25.25 3.1 37.6 41 -9.1 15.7
13:45 1026 30.3 855 25.25 3.5 38.4 40 -9 15.8
13:50 1026 30.3 855 25.25 3.7 38.7 40 -8.5 16.7
13:55 1025 30.27 855 25.25 3.6 38.5 41 -8.6 16.6
14:00 1025 30.27 855 25.25 3.7 38.7 41 -8.4 16.9
14:05 1025 30.27 855 25.25 4 39.1 40 -8.4 17
14:10 1025 30.27 855 25.25 4.3 39.7 40 -8.1 17.3
14:15 1025 30.27 854 25.22 4.3 39.8 40 -8 17.6
14:20 1025 30.27 854 25.22 4.6 40.2 39 -8.3 17
14:25 1025 30.27 854 25.22 4.8 40.6 38 -8.2 17.3
14:30 1025 30.27 854 25.22 4.8 40.6 37 -8.6 16.4
14:35 1025 30.27 854 25.22 4.2 39.5 38 -8.8 16.2
14:40 1025 30.27 854 25.22 4 39.3 37 -9.5 14.8
14:45 1025 30.27 854 25.22 4.4 39.9 36 -9.4 15.1
14:50 1025 30.27 854 25.22 5.1 41.1 37 -8.5 16.8
14:55 1025 30.27 854 25.22 5.1 41.1 38 -8.1 17.4
15:00 1025 30.27 854 25.22 4.7 40.5 40 -7.9 17.8
15:05 1025 30.27 854 25.22 5.1 41.2 36 -8.9 16
15:10 1025 30.27 854 25.22 5.5 41.9 36 -8.4 16.8
15:15 1025 30.27 854 25.22 5.1 41.1 40 -7.5 18.5
15:20 1025 30.27 854 25.22 5 41 39 -7.8 17.9
15:25 1025 30.27 854 25.22 5.3 41.5 35 -8.9 16
15:30 1025 30.27 854 25.22 5.5 41.9 36 -8.4 16.9
15:35 1025 30.27 854 25.22 6.4 43.5 35 -8.1 17.4
15:40 1025 30.27 854 25.22 6.1 43 36 -7.9 17.7
15:45 1025 30.27 854 25.22 6.6 43.8 38 -6.9 19.6
15:50 1025 30.27 854 25.22 7.7 45.8 32 -8 17.7
15:55 1025 30.27 854 25.22 7.6 45.8 31 -8.3 17.1
16:00 1025 30.27 854 25.22 7.9 46.2 30 -8.8 16.2
16:05 1025 30.27 854 25.22 8.2 46.7 30 -8.2 17.2
16:10 1025 30.27 854 25.22 8.4 47.1 29 -8.4 16.9
16:15 1025 30.27 854 25.22 8.5 47.3 30 -7.9 17.8
16:20 1025 30.27 854 25.22 8.5 47.3 32 -7.2 19.1
16:25 1025 30.27 854 25.22 8.4 47.1 31 -7.6 18.3
16:30 1025 30.27 854 25.22 7.6 45.6 31 -8.6 16.4
16:35 1025 30.27 854 25.22 7.6 45.7 31 -8.6 16.5
16:40 1025 30.27 854 25.22 7.3 45.2 30 -9.1 15.6
16:45 1025 30.27 854 25.22 6.8 44.3 31 -9.1 15.6
16:50 1025 30.27 854 25.22 6.6 43.8 32 -9.2 15.5
16:55 1025 30.27 854 25.22 6 42.9 32 -9.2 15.4
17:00 1025 30.27 854 25.22 6.1 42.9 32 -9.3 15.3
17:05 1025 30.27 854 25.22 5.9 42.7 32 -9.5 14.9
17:10 1025 30.27 854 25.22 6 42.7 33 -9.3 15.3
17:15 1025 30.27 854 25.22 5.6 42 35 -8.9 16
17:20 1025 30.27 854 25.22 5.3 41.5 34 -9.3 15.3
17:25 1025 30.27 854 25.22 5.4 41.8 35 -8.9 16
17:30 1025 30.27 854 25.22 4.7 40.5 39 -8.2 17.2
17:35 1025 30.27 854 25.22 4.5 40.1 40 -8 17.7
17:40 1025 30.27 854 25.22 4.1 39.4 43 -7.5 18.5
17:45 1025 30.27 854 25.22 3.8 38.8 42 -7.8 17.9
17:50 1025 30.27 854 25.22 3.8 38.9 42 -7.8 17.9
17:55 1025 30.27 854 25.22 3.7 38.7 44 -7.5 18.5
18:00 1025 30.27 854 25.22 3.4 38.1 47 -7 19.5
18:05 1025 30.27 854 25.22 3.3 37.9 43 -8.1 17.4
18:10 1025 30.27 854 25.22 3.8 38.9 44 -7.3 18.9
18:15 1025 30.27 854 25.22 3.4 38.1 46 -7.1 19.2
18:20 1025 30.27 854 25.22 3.5 38.2 46 -7.2 19.1
18:25 1025 30.27 854 25.22 3.3 37.9 47 -7 19.4
18:30 1025 30.27 854 25.22 3.5 38.3 46 -7.2 19.1
18:35 1025 30.27 854 25.22 3.5 38.3 48 -6.6 20.1
18:40 1025 30.27 854 25.22 3.2 37.7 49 -6.4 20.5
18:45 1025 30.27 854 25.22 2.7 36.8 51 -6.4 20.5
18:50 1025 30.27 854 25.22 2.4 36.3 52 -6.5 20.3
18:55 1025 30.27 854 25.22 1.5 34.7 56 -6.4 20.5
19:00 1025 30.27 854 25.22 1.6 34.8 55 -6.6 20.1
19:05 1025 30.27 854 25.22 2.7 36.8 53 -6 21.1
19:10 1025 30.27 854 25.22 2.8 37 54 -5.6 22
19:15 1025 30.27 854 25.22 2.8 37.1 52 -6.2 20.9
19:20 1025 30.27 854 25.22 3 37.4 51 -6.2 20.8
19:25 1025 30.27 854 25.22 3.1 37.6 51 -6.2 20.9
19:30 1025 30.27 854 25.22 3.4 38.1 51 -5.9 21.4
19:35 1025 30.27 854 25.22 3.1 37.6 51 -6 21.1
19:40 1025 30.27 854 25.22 2.5 36.4 53 -6.1 20.9
19:45 1025 30.27 854 25.22 2.2 35.9 54 -6.2 20.8
19:50 1025 30.27 854 25.22 2.3 36.2 53 -6.3 20.7
19:55 1025 30.27 854 25.22 2.3 36.1 55 -5.9 21.4
20:00 1025 30.27 854 25.22 1.4 34.6 57 -6.1 21
20:05 1025 30.27 854 25.22 1.6 34.9 56 -6.3 20.7
20:10 1025 30.27 854 25.22 2.1 35.8 54 -6.2 20.9
20:15 1025 30.27 854 25.22 2.2 36 55 -6 21.2
20:20 1025 30.27 854 25.22 2.3 36.1 54 -6.1 20.9
20:25 1025 30.27 854 25.22 2.4 36.3 53 -6.2 20.9
20:30 1025 30.27 854 25.22 2.4 36.4 53 -6.1 20.9
20:35 1025 30.27 854 25.22 2.5 36.4 53 -6.2 20.8
20:40 1025 30.27 854 25.22 2.6 36.7 53 -6.1 21
20:45 1025 30.27 854 25.22 2.7 36.8 52 -6.2 20.8
20:50 1025 30.27 854 25.22 2.7 36.8 52 -6.2 20.9
20:55 1025 30.27 854 25.22 2.7 36.8 52 -6.3 20.7
21:00 1025 30.27 854 25.22 3 37.4 50 -6.4 20.5
21:05 1025 30.27 854 25.22 3.3 38 48 -6.7 20
21:10 1025 30.27 854 25.22 3.7 38.6 48 -6.2 20.8
21:15 1025 30.27 854 25.22 3.6 38.5 48 -6.4 20.5
21:20 1025 30.27 854 25.22 3.4 38.1 50 -6.1 21
21:25 1025 30.27 855 25.25 2.7 36.9 51 -6.4 20.5
21:30 1025 30.27 855 25.25 2.4 36.2 52 -6.5 20.3
21:35 1025 30.27 855 25.25 1.9 35.4 53 -6.7 19.9
21:40 1025 30.27 855 25.25 1.7 35.1 54 -6.6 20.1
21:45 1025 30.27 855 25.25 1.1 34 55 -6.9 19.6
21:50 1025 30.27 854 25.22 0.8 33.4 56 -7 19.4
21:55 1025 30.27 854 25.22 0.8 33.4 56 -7.1 19.2
22:00 1025 30.27 854 25.22 1.4 34.6 58 -6 21.2
22:05 1025 30.27 855 25.25 1.5 34.6 55 -6.6 20.1
22:10 1025 30.27 855 25.25 1.5 34.6 55 -6.7 20
22:15 1025 30.27 855 25.25 1.6 34.8 56 -6.2 20.8
22:20 1025 30.27 854 25.22 1.6 34.9 55 -6.5 20.3
22:25 1025 30.27 855 25.25 1.4 34.5 56 -6.5 20.3
22:30 1025 30.27 855 25.25 1 33.8 58 -6.4 20.5
22:35 1025 30.27 855 25.25 1 33.8 57 -6.7 20
22:40 1025 30.27 855 25.25 0.9 33.7 56 -6.8 19.8
22:45 1025 30.27 855 25.25 0.9 33.6 55 -7.1 19.2
22:50 1025 30.27 855 25.25 1 33.8 55 -7 19.4
22:55 1025 30.27 855 25.25 0.9 33.6 55 -7.1 19.3
23:00 1025 30.27 855 25.25 1 33.8 54 -7.4 18.7
23:05 1025 30.27 855 25.25 0.8 33.4 54 -7.4 18.6
23:10 1025 30.27 855 25.25 0.7 33.2 55 -7.3 18.9
23:15 1025 30.27 854 25.22 0.7 33.2 57 -7 19.4
23:20 1025 30.27 854 25.22 0.4 32.7 56 -7.3 18.8
23:25 1025 30.27 855 25.25 0 32.1 57 -7.5 18.5
23:30 1025 30.27 854 25.22 -0 32 58 -7.2 19
23:35 1025 30.27 854 25.22 0.2 32.4 56 -7.5 18.4
23:40 1025 30.27 854 25.22 0.7 33.3 54 -7.5 18.5
23:45 1025 30.27 854 25.22 1 33.8 53 -7.5 18.5
23:50 1025 30.27 854 25.22 0.9 33.7 54 -7.3 18.8
23:55 1025 30.27 854 25.22 1.1 33.9 53 -7.5 18.5
24:00 1025 30.27 855 25.25 0.9 33.6 55 -7.2 19